sensor_id;sensor_type;location;lat;lon;timestamp;P1;durP1;ratioP1;P2;durP2;ratioP2
9138;SDS011;4604;48.616;9.548;2023-06-22T00:01:12;12.57;;;6.13;;
9138;SDS011;4604;48.616;9.548;2023-06-22T00:03:39;7.28;;;5.10;;
9138;SDS011;4604;48.616;9.548;2023-06-22T00:06:05;6.82;;;5.95;;
9138;SDS011;4604;48.616;9.548;2023-06-22T00:08:32;8.85;;;6.03;;
9138;SDS011;4604;48.616;9.548;2023-06-22T00:10:58;10.68;;;5.85;;
9138;SDS011;4604;48.616;9.548;2023-06-22T00:13:27;7.95;;;6.03;;
9138;SDS011;4604;48.616;9.548;2023-06-22T00:15:53;7.50;;;5.80;;
9138;SDS011;4604;48.616;9.548;2023-06-22T00:18:20;9.85;;;6.15;;
9138;SDS011;4604;48.616;9.548;2023-06-22T00:20:46;10.90;;;6.07;;
9138;SDS011;4604;48.616;9.548;2023-06-22T00:23:13;12.27;;;6.15;;
9138;SDS011;4604;48.616;9.548;2023-06-22T00:25:42;7.68;;;5.30;;
9138;SDS011;4604;48.616;9.548;2023-06-22T00:28:09;10.10;;;6.13;;
9138;SDS011;4604;48.616;9.548;2023-06-22T00:30:37;7.93;;;5.93;;
9138;SDS011;4604;48.616;9.548;2023-06-22T00:33:03;9.20;;;6.35;;
9138;SDS011;4604;48.616;9.548;2023-06-22T00:35:32;8.90;;;6.05;;
9138;SDS011;4604;48.616;9.548;2023-06-22T00:38:00;9.18;;;6.20;;
9138;SDS011;4604;48.616;9.548;2023-06-22T00:40:28;9.80;;;6.85;;
9138;SDS011;4604;48.616;9.548;2023-06-22T00:42:56;8.20;;;5.72;;
9138;SDS011;4604;48.616;9.548;2023-06-22T00:45:23;7.05;;;5.53;;
9138;SDS011;4604;48.616;9.548;2023-06-22T00:47:51;9.15;;;5.60;;
9138;SDS011;4604;48.616;9.548;2023-06-22T00:50:20;6.65;;;4.95;;
9138;SDS011;4604;48.616;9.548;2023-06-22T00:52:48;11.55;;;6.18;;
9138;SDS011;4604;48.616;9.548;2023-06-22T00:55:18;9.95;;;6.35;;
9138;SDS011;4604;48.616;9.548;2023-06-22T00:57:45;11.50;;;6.07;;
9138;SDS011;4604;48.616;9.548;2023-06-22T01:00:13;7.70;;;5.78;;
9138;SDS011;4604;48.616;9.548;2023-06-22T01:02:41;5.47;;;4.93;;
9138;SDS011;4604;48.616;9.548;2023-06-22T01:05:12;9.88;;;5.50;;
9138;SDS011;4604;48.616;9.548;2023-06-22T01:07:39;11.07;;;5.50;;
9138;SDS011;4604;48.616;9.548;2023-06-22T01:10:12;8.32;;;5.88;;
9138;SDS011;4604;48.616;9.548;2023-06-22T01:12:45;6.28;;;5.35;;
9138;SDS011;4604;48.616;9.548;2023-06-22T01:15:18;7.68;;;5.32;;
9138;SDS011;4604;48.616;9.548;2023-06-22T01:17:51;9.98;;;6.05;;
9138;SDS011;4604;48.616;9.548;2023-06-22T01:20:20;7.95;;;5.65;;
9138;SDS011;4604;48.616;9.548;2023-06-22T01:22:53;8.60;;;5.72;;
9138;SDS011;4604;48.616;9.548;2023-06-22T01:25:31;9.88;;;6.63;;
9138;SDS011;4604;48.616;9.548;2023-06-22T01:28:10;11.05;;;6.53;;
9138;SDS011;4604;48.616;9.548;2023-06-22T01:30:50;13.10;;;7.40;;
9138;SDS011;4604;48.616;9.548;2023-06-22T01:33:28;14.07;;;7.70;;
9138;SDS011;4604;48.616;9.548;2023-06-22T01:35:57;11.25;;;7.43;;
9138;SDS011;4604;48.616;9.548;2023-06-22T01:38:24;9.93;;;6.53;;
9138;SDS011;4604;48.616;9.548;2023-06-22T01:40:52;10.50;;;7.05;;
9138;SDS011;4604;48.616;9.548;2023-06-22T01:43:19;11.65;;;6.70;;
9138;SDS011;4604;48.616;9.548;2023-06-22T01:45:49;10.25;;;7.43;;
9138;SDS011;4604;48.616;9.548;2023-06-22T01:48:17;10.52;;;6.82;;
9138;SDS011;4604;48.616;9.548;2023-06-22T01:50:44;12.43;;;7.15;;
9138;SDS011;4604;48.616;9.548;2023-06-22T01:53:11;10.48;;;6.47;;
9138;SDS011;4604;48.616;9.548;2023-06-22T01:55:38;11.07;;;7.25;;
9138;SDS011;4604;48.616;9.548;2023-06-22T01:58:04;9.13;;;6.07;;
9138;SDS011;4604;48.616;9.548;2023-06-22T02:00:32;11.18;;;7.68;;
9138;SDS011;4604;48.616;9.548;2023-06-22T02:03:05;9.45;;;6.07;;
9138;SDS011;4604;48.616;9.548;2023-06-22T02:05:36;7.32;;;6.07;;
9138;SDS011;4604;48.616;9.548;2023-06-22T02:08:08;9.75;;;6.50;;
9138;SDS011;4604;48.616;9.548;2023-06-22T02:10:38;9.07;;;6.65;;
9138;SDS011;4604;48.616;9.548;2023-06-22T02:13:07;11.93;;;6.60;;
9138;SDS011;4604;48.616;9.548;2023-06-22T02:15:35;14.20;;;7.28;;
9138;SDS011;4604;48.616;9.548;2023-06-22T02:18:04;10.40;;;6.45;;
9138;SDS011;4604;48.616;9.548;2023-06-22T02:20:31;10.00;;;6.57;;
9138;SDS011;4604;48.616;9.548;2023-06-22T02:22:58;11.90;;;6.13;;
9138;SDS011;4604;48.616;9.548;2023-06-22T02:25:25;7.97;;;5.03;;
9138;SDS011;4604;48.616;9.548;2023-06-22T02:27:51;13.55;;;6.05;;
9138;SDS011;4604;48.616;9.548;2023-06-22T02:30:18;11.77;;;5.80;;
9138;SDS011;4604;48.616;9.548;2023-06-22T02:32:44;10.73;;;5.90;;
9138;SDS011;4604;48.616;9.548;2023-06-22T02:35:12;10.18;;;5.63;;
9138;SDS011;4604;48.616;9.548;2023-06-22T02:37:39;11.32;;;5.88;;
9138;SDS011;4604;48.616;9.548;2023-06-22T02:40:07;11.95;;;5.82;;
9138;SDS011;4604;48.616;9.548;2023-06-22T02:42:35;11.88;;;6.32;;
9138;SDS011;4604;48.616;9.548;2023-06-22T02:45:02;9.48;;;5.90;;
9138;SDS011;4604;48.616;9.548;2023-06-22T02:47:29;9.95;;;6.13;;
9138;SDS011;4604;48.616;9.548;2023-06-22T02:49:56;12.65;;;7.03;;
9138;SDS011;4604;48.616;9.548;2023-06-22T02:52:25;11.75;;;6.15;;
9138;SDS011;4604;48.616;9.548;2023-06-22T02:54:51;6.95;;;5.85;;
9138;SDS011;4604;48.616;9.548;2023-06-22T02:57:18;9.20;;;5.90;;
9138;SDS011;4604;48.616;9.548;2023-06-22T02:59:45;9.57;;;5.70;;
9138;SDS011;4604;48.616;9.548;2023-06-22T03:02:11;7.43;;;5.60;;
9138;SDS011;4604;48.616;9.548;2023-06-22T03:04:38;8.20;;;5.55;;
9138;SDS011;4604;48.616;9.548;2023-06-22T03:07:04;7.70;;;5.55;;
9138;SDS011;4604;48.616;9.548;2023-06-22T03:09:33;14.02;;;6.05;;
9138;SDS011;4604;48.616;9.548;2023-06-22T03:11:59;11.75;;;5.72;;
9138;SDS011;4604;48.616;9.548;2023-06-22T03:14:27;8.10;;;5.57;;
9138;SDS011;4604;48.616;9.548;2023-06-22T03:16:53;9.07;;;5.53;;
9138;SDS011;4604;48.616;9.548;2023-06-22T03:19:25;7.50;;;5.57;;
9138;SDS011;4604;48.616;9.548;2023-06-22T03:21:55;8.95;;;5.88;;
9138;SDS011;4604;48.616;9.548;2023-06-22T03:24:21;11.05;;;5.85;;
9138;SDS011;4604;48.616;9.548;2023-06-22T03:26:50;5.95;;;4.63;;
9138;SDS011;4604;48.616;9.548;2023-06-22T03:29:16;7.78;;;4.70;;
9138;SDS011;4604;48.616;9.548;2023-06-22T03:31:43;7.60;;;5.10;;
9138;SDS011;4604;48.616;9.548;2023-06-22T03:34:09;8.43;;;4.47;;
9138;SDS011;4604;48.616;9.548;2023-06-22T03:36:36;7.28;;;5.18;;
9138;SDS011;4604;48.616;9.548;2023-06-22T03:39:03;9.05;;;4.63;;
9138;SDS011;4604;48.616;9.548;2023-06-22T03:41:29;7.20;;;5.13;;
9138;SDS011;4604;48.616;9.548;2023-06-22T03:43:57;6.43;;;4.85;;
9138;SDS011;4604;48.616;9.548;2023-06-22T03:46:24;10.50;;;5.60;;
9138;SDS011;4604;48.616;9.548;2023-06-22T03:48:50;7.63;;;4.75;;
9138;SDS011;4604;48.616;9.548;2023-06-22T03:51:17;6.20;;;4.40;;
9138;SDS011;4604;48.616;9.548;2023-06-22T03:53:44;7.53;;;4.82;;
9138;SDS011;4604;48.616;9.548;2023-06-22T03:56:10;9.45;;;4.95;;
9138;SDS011;4604;48.616;9.548;2023-06-22T03:58:37;9.70;;;5.38;;
9138;SDS011;4604;48.616;9.548;2023-06-22T04:01:09;11.02;;;5.70;;
9138;SDS011;4604;48.616;9.548;2023-06-22T04:03:37;8.38;;;5.95;;
9138;SDS011;4604;48.616;9.548;2023-06-22T04:06:03;7.90;;;5.22;;
9138;SDS011;4604;48.616;9.548;2023-06-22T04:08:30;8.27;;;4.88;;
9138;SDS011;4604;48.616;9.548;2023-06-22T04:10:56;9.25;;;4.88;;
9138;SDS011;4604;48.616;9.548;2023-06-22T04:13:24;8.93;;;5.03;;
9138;SDS011;4604;48.616;9.548;2023-06-22T04:15:50;9.85;;;4.95;;
9138;SDS011;4604;48.616;9.548;2023-06-22T04:18:18;11.55;;;5.28;;
9138;SDS011;4604;48.616;9.548;2023-06-22T04:20:45;7.63;;;4.38;;
9138;SDS011;4604;48.616;9.548;2023-06-22T04:23:12;7.43;;;4.80;;
9138;SDS011;4604;48.616;9.548;2023-06-22T04:25:39;11.73;;;4.78;;
9138;SDS011;4604;48.616;9.548;2023-06-22T04:28:05;10.27;;;5.60;;
9138;SDS011;4604;48.616;9.548;2023-06-22T04:30:40;12.02;;;5.70;;
9138;SDS011;4604;48.616;9.548;2023-06-22T04:33:11;11.93;;;5.93;;
9138;SDS011;4604;48.616;9.548;2023-06-22T04:35:40;7.25;;;4.72;;
9138;SDS011;4604;48.616;9.548;2023-06-22T04:38:07;8.57;;;5.35;;
9138;SDS011;4604;48.616;9.548;2023-06-22T04:40:34;12.88;;;4.95;;
9138;SDS011;4604;48.616;9.548;2023-06-22T04:43:00;6.28;;;4.85;;
9138;SDS011;4604;48.616;9.548;2023-06-22T04:45:28;8.18;;;4.72;;
9138;SDS011;4604;48.616;9.548;2023-06-22T04:47:55;6.93;;;4.60;;
9138;SDS011;4604;48.616;9.548;2023-06-22T04:50:22;7.32;;;4.45;;
9138;SDS011;4604;48.616;9.548;2023-06-22T04:52:50;5.70;;;3.92;;
9138;SDS011;4604;48.616;9.548;2023-06-22T04:55:17;9.20;;;4.28;;
9138;SDS011;4604;48.616;9.548;2023-06-22T04:57:46;6.47;;;4.18;;
9138;SDS011;4604;48.616;9.548;2023-06-22T05:00:14;5.70;;;3.78;;
9138;SDS011;4604;48.616;9.548;2023-06-22T05:02:43;7.28;;;4.10;;
9138;SDS011;4604;48.616;9.548;2023-06-22T05:05:10;7.22;;;3.97;;
9138;SDS011;4604;48.616;9.548;2023-06-22T05:07:39;8.23;;;4.28;;
9138;SDS011;4604;48.616;9.548;2023-06-22T05:10:10;7.88;;;3.92;;
9138;SDS011;4604;48.616;9.548;2023-06-22T05:12:38;11.45;;;4.63;;
9138;SDS011;4604;48.616;9.548;2023-06-22T05:15:06;7.25;;;3.88;;
9138;SDS011;4604;48.616;9.548;2023-06-22T05:17:33;8.35;;;3.90;;
9138;SDS011;4604;48.616;9.548;2023-06-22T05:20:01;8.70;;;4.20;;
9138;SDS011;4604;48.616;9.548;2023-06-22T05:22:31;7.57;;;3.92;;
9138;SDS011;4604;48.616;9.548;2023-06-22T05:24:58;6.45;;;4.65;;
9138;SDS011;4604;48.616;9.548;2023-06-22T05:27:26;5.45;;;3.83;;
9138;SDS011;4604;48.616;9.548;2023-06-22T05:29:52;5.95;;;3.42;;
9138;SDS011;4604;48.616;9.548;2023-06-22T05:32:19;8.13;;;3.40;;
9138;SDS011;4604;48.616;9.548;2023-06-22T05:34:46;10.18;;;3.75;;
9138;SDS011;4604;48.616;9.548;2023-06-22T05:37:12;7.85;;;3.88;;
9138;SDS011;4604;48.616;9.548;2023-06-22T05:39:39;7.70;;;3.53;;
9138;SDS011;4604;48.616;9.548;2023-06-22T05:42:06;5.78;;;3.38;;
9138;SDS011;4604;48.616;9.548;2023-06-22T05:44:34;9.95;;;3.92;;
9138;SDS011;4604;48.616;9.548;2023-06-22T05:47:02;7.72;;;3.67;;
9138;SDS011;4604;48.616;9.548;2023-06-22T05:49:29;6.40;;;3.72;;
9138;SDS011;4604;48.616;9.548;2023-06-22T05:51:57;6.80;;;3.55;;
9138;SDS011;4604;48.616;9.548;2023-06-22T05:54:24;6.72;;;3.38;;
9138;SDS011;4604;48.616;9.548;2023-06-22T05:56:51;7.60;;;3.45;;
9138;SDS011;4604;48.616;9.548;2023-06-22T05:59:17;7.00;;;3.45;;
9138;SDS011;4604;48.616;9.548;2023-06-22T06:01:45;5.50;;;3.25;;
9138;SDS011;4604;48.616;9.548;2023-06-22T06:04:15;6.50;;;3.55;;
9138;SDS011;4604;48.616;9.548;2023-06-22T06:06:42;7.97;;;3.65;;
9138;SDS011;4604;48.616;9.548;2023-06-22T06:09:09;6.20;;;3.08;;
9138;SDS011;4604;48.616;9.548;2023-06-22T06:11:36;8.05;;;3.38;;
9138;SDS011;4604;48.616;9.548;2023-06-22T06:14:03;5.88;;;3.15;;
9138;SDS011;4604;48.616;9.548;2023-06-22T06:16:29;6.07;;;3.35;;
9138;SDS011;4604;48.616;9.548;2023-06-22T06:18:58;7.13;;;3.30;;
9138;SDS011;4604;48.616;9.548;2023-06-22T06:21:24;5.00;;;3.42;;
9138;SDS011;4604;48.616;9.548;2023-06-22T06:23:51;9.25;;;3.50;;
9138;SDS011;4604;48.616;9.548;2023-06-22T06:26:18;4.18;;;3.30;;
9138;SDS011;4604;48.616;9.548;2023-06-22T06:28:53;8.50;;;3.85;;
9138;SDS011;4604;48.616;9.548;2023-06-22T06:31:19;7.22;;;4.53;;
9138;SDS011;4604;48.616;9.548;2023-06-22T06:33:46;9.73;;;4.80;;
9138;SDS011;4604;48.616;9.548;2023-06-22T06:36:14;9.13;;;4.43;;
9138;SDS011;4604;48.616;9.548;2023-06-22T06:38:41;9.50;;;4.90;;
9138;SDS011;4604;48.616;9.548;2023-06-22T06:41:08;9.75;;;4.95;;
9138;SDS011;4604;48.616;9.548;2023-06-22T06:43:34;5.43;;;4.07;;
9138;SDS011;4604;48.616;9.548;2023-06-22T06:46:01;8.07;;;4.45;;
9138;SDS011;4604;48.616;9.548;2023-06-22T06:48:28;9.23;;;4.05;;
9138;SDS011;4604;48.616;9.548;2023-06-22T06:50:54;10.10;;;4.60;;
9138;SDS011;4604;48.616;9.548;2023-06-22T06:53:22;10.35;;;4.75;;
9138;SDS011;4604;48.616;9.548;2023-06-22T06:55:49;9.23;;;4.53;;
9138;SDS011;4604;48.616;9.548;2023-06-22T06:58:16;10.32;;;4.60;;
9138;SDS011;4604;48.616;9.548;2023-06-22T07:00:42;10.45;;;5.07;;
9138;SDS011;4604;48.616;9.548;2023-06-22T07:03:09;11.70;;;5.22;;
9138;SDS011;4604;48.616;9.548;2023-06-22T07:05:36;15.07;;;5.20;;
9138;SDS011;4604;48.616;9.548;2023-06-22T07:08:02;11.68;;;5.25;;
9138;SDS011;4604;48.616;9.548;2023-06-22T07:10:31;9.60;;;4.63;;
9138;SDS011;4604;48.616;9.548;2023-06-22T07:12:57;13.27;;;4.90;;
9138;SDS011;4604;48.616;9.548;2023-06-22T07:15:24;6.85;;;4.70;;
9138;SDS011;4604;48.616;9.548;2023-06-22T07:17:50;5.93;;;4.50;;
9138;SDS011;4604;48.616;9.548;2023-06-22T07:20:17;11.82;;;5.32;;
9138;SDS011;4604;48.616;9.548;2023-06-22T07:22:44;10.68;;;4.57;;
9138;SDS011;4604;48.616;9.548;2023-06-22T07:25:11;8.23;;;4.68;;
9138;SDS011;4604;48.616;9.548;2023-06-22T07:27:42;9.40;;;5.20;;
9138;SDS011;4604;48.616;9.548;2023-06-22T07:30:11;8.07;;;4.60;;
9138;SDS011;4604;48.616;9.548;2023-06-22T07:32:39;9.43;;;4.75;;
9138;SDS011;4604;48.616;9.548;2023-06-22T07:35:07;6.95;;;5.20;;
9138;SDS011;4604;48.616;9.548;2023-06-22T07:37:34;10.15;;;4.60;;
9138;SDS011;4604;48.616;9.548;2023-06-22T07:40:01;9.52;;;4.63;;
9138;SDS011;4604;48.616;9.548;2023-06-22T07:42:31;10.05;;;4.95;;
9138;SDS011;4604;48.616;9.548;2023-06-22T07:45:00;11.13;;;4.95;;
9138;SDS011;4604;48.616;9.548;2023-06-22T07:47:27;8.48;;;5.00;;
9138;SDS011;4604;48.616;9.548;2023-06-22T07:49:54;8.90;;;4.65;;
9138;SDS011;4604;48.616;9.548;2023-06-22T07:52:22;9.07;;;4.95;;
9138;SDS011;4604;48.616;9.548;2023-06-22T07:54:49;9.90;;;4.88;;
9138;SDS011;4604;48.616;9.548;2023-06-22T07:57:16;11.40;;;5.68;;
9138;SDS011;4604;48.616;9.548;2023-06-22T07:59:43;12.18;;;5.28;;
9138;SDS011;4604;48.616;9.548;2023-06-22T08:02:11;9.43;;;4.97;;
9138;SDS011;4604;48.616;9.548;2023-06-22T08:04:39;14.32;;;5.70;;
9138;SDS011;4604;48.616;9.548;2023-06-22T08:07:06;13.75;;;5.60;;
9138;SDS011;4604;48.616;9.548;2023-06-22T08:09:32;12.77;;;5.20;;
9138;SDS011;4604;48.616;9.548;2023-06-22T08:11:59;10.27;;;5.53;;
9138;SDS011;4604;48.616;9.548;2023-06-22T08:14:26;12.30;;;5.50;;
9138;SDS011;4604;48.616;9.548;2023-06-22T08:16:53;12.73;;;5.30;;
9138;SDS011;4604;48.616;9.548;2023-06-22T08:19:21;11.00;;;5.20;;
9138;SDS011;4604;48.616;9.548;2023-06-22T08:21:47;12.35;;;5.97;;
9138;SDS011;4604;48.616;9.548;2023-06-22T08:24:14;15.75;;;5.38;;
9138;SDS011;4604;48.616;9.548;2023-06-22T08:26:41;11.80;;;5.57;;
9138;SDS011;4604;48.616;9.548;2023-06-22T08:29:07;11.43;;;6.00;;
9138;SDS011;4604;48.616;9.548;2023-06-22T08:31:34;8.70;;;5.32;;
9138;SDS011;4604;48.616;9.548;2023-06-22T08:34:01;12.05;;;5.53;;
9138;SDS011;4604;48.616;9.548;2023-06-22T08:36:29;13.88;;;5.70;;
9138;SDS011;4604;48.616;9.548;2023-06-22T08:38:57;9.82;;;5.25;;
9138;SDS011;4604;48.616;9.548;2023-06-22T08:41:26;19.70;;;5.78;;
9138;SDS011;4604;48.616;9.548;2023-06-22T08:43:53;13.60;;;5.78;;
9138;SDS011;4604;48.616;9.548;2023-06-22T08:46:19;15.55;;;6.20;;
9138;SDS011;4604;48.616;9.548;2023-06-22T08:48:48;13.82;;;5.35;;
9138;SDS011;4604;48.616;9.548;2023-06-22T08:51:15;15.15;;;5.85;;
9138;SDS011;4604;48.616;9.548;2023-06-22T08:53:43;12.38;;;5.78;;
9138;SDS011;4604;48.616;9.548;2023-06-22T08:56:10;13.73;;;6.00;;
9138;SDS011;4604;48.616;9.548;2023-06-22T08:58:37;14.13;;;6.05;;
9138;SDS011;4604;48.616;9.548;2023-06-22T09:01:04;9.25;;;5.47;;
9138;SDS011;4604;48.616;9.548;2023-06-22T09:03:30;9.65;;;5.47;;
9138;SDS011;4604;48.616;9.548;2023-06-22T09:05:57;15.95;;;6.15;;
9138;SDS011;4604;48.616;9.548;2023-06-22T09:08:24;12.60;;;5.70;;
9138;SDS011;4604;48.616;9.548;2023-06-22T09:10:52;11.10;;;6.40;;
9138;SDS011;4604;48.616;9.548;2023-06-22T09:13:19;14.98;;;5.85;;
9138;SDS011;4604;48.616;9.548;2023-06-22T09:15:47;11.93;;;5.80;;
9138;SDS011;4604;48.616;9.548;2023-06-22T09:18:14;9.57;;;6.00;;
9138;SDS011;4604;48.616;9.548;2023-06-22T09:20:40;12.48;;;6.13;;
9138;SDS011;4604;48.616;9.548;2023-06-22T09:23:07;14.07;;;5.93;;
9138;SDS011;4604;48.616;9.548;2023-06-22T09:25:34;12.50;;;5.30;;
9138;SDS011;4604;48.616;9.548;2023-06-22T09:28:02;11.23;;;5.60;;
9138;SDS011;4604;48.616;9.548;2023-06-22T09:30:29;12.05;;;6.22;;
9138;SDS011;4604;48.616;9.548;2023-06-22T09:32:56;10.73;;;5.72;;
9138;SDS011;4604;48.616;9.548;2023-06-22T09:35:22;13.27;;;6.10;;
9138;SDS011;4604;48.616;9.548;2023-06-22T09:37:49;11.75;;;6.13;;
9138;SDS011;4604;48.616;9.548;2023-06-22T09:40:15;10.43;;;6.70;;
9138;SDS011;4604;48.616;9.548;2023-06-22T09:42:42;13.63;;;6.85;;
9138;SDS011;4604;48.616;9.548;2023-06-22T09:45:10;9.63;;;5.82;;
9138;SDS011;4604;48.616;9.548;2023-06-22T09:47:37;13.10;;;5.93;;
9138;SDS011;4604;48.616;9.548;2023-06-22T09:50:04;13.38;;;6.38;;
9138;SDS011;4604;48.616;9.548;2023-06-22T09:52:31;9.23;;;6.30;;
9138;SDS011;4604;48.616;9.548;2023-06-22T09:54:57;8.98;;;5.50;;
9138;SDS011;4604;48.616;9.548;2023-06-22T09:57:24;12.40;;;6.07;;
9138;SDS011;4604;48.616;9.548;2023-06-22T09:59:51;8.98;;;6.65;;
9138;SDS011;4604;48.616;9.548;2023-06-22T10:02:19;11.80;;;6.45;;
9138;SDS011;4604;48.616;9.548;2023-06-22T10:04:45;17.67;;;7.00;;
9138;SDS011;4604;48.616;9.548;2023-06-22T10:07:12;14.40;;;6.82;;
9138;SDS011;4604;48.616;9.548;2023-06-22T10:09:38;11.98;;;6.00;;
9138;SDS011;4604;48.616;9.548;2023-06-22T10:12:05;11.55;;;6.32;;
9138;SDS011;4604;48.616;9.548;2023-06-22T10:14:33;13.35;;;6.32;;
9138;SDS011;4604;48.616;9.548;2023-06-22T10:16:59;14.90;;;6.38;;
9138;SDS011;4604;48.616;9.548;2023-06-22T10:19:27;11.35;;;6.65;;
9138;SDS011;4604;48.616;9.548;2023-06-22T10:21:54;9.90;;;6.22;;
9138;SDS011;4604;48.616;9.548;2023-06-22T10:24:20;12.43;;;6.90;;
9138;SDS011;4604;48.616;9.548;2023-06-22T10:26:47;11.63;;;6.35;;
9138;SDS011;4604;48.616;9.548;2023-06-22T10:29:13;10.38;;;6.75;;
9138;SDS011;4604;48.616;9.548;2023-06-22T10:31:41;13.73;;;6.97;;
9138;SDS011;4604;48.616;9.548;2023-06-22T10:34:07;9.18;;;6.00;;
9138;SDS011;4604;48.616;9.548;2023-06-22T10:36:35;12.35;;;6.78;;
9138;SDS011;4604;48.616;9.548;2023-06-22T10:39:02;10.82;;;6.97;;
9138;SDS011;4604;48.616;9.548;2023-06-22T10:41:29;12.10;;;6.30;;
9138;SDS011;4604;48.616;9.548;2023-06-22T10:43:56;10.40;;;6.68;;
9138;SDS011;4604;48.616;9.548;2023-06-22T10:46:23;13.15;;;6.38;;
9138;SDS011;4604;48.616;9.548;2023-06-22T10:48:50;14.70;;;6.72;;
9138;SDS011;4604;48.616;9.548;2023-06-22T10:51:19;11.52;;;6.10;;
9138;SDS011;4604;48.616;9.548;2023-06-22T10:53:47;16.50;;;6.95;;
9138;SDS011;4604;48.616;9.548;2023-06-22T10:56:13;13.98;;;6.53;;
9138;SDS011;4604;48.616;9.548;2023-06-22T10:58:40;13.68;;;6.30;;
9138;SDS011;4604;48.616;9.548;2023-06-22T11:01:07;11.90;;;6.35;;
9138;SDS011;4604;48.616;9.548;2023-06-22T11:03:33;8.18;;;6.55;;
9138;SDS011;4604;48.616;9.548;2023-06-22T11:06:00;14.15;;;6.75;;
9138;SDS011;4604;48.616;9.548;2023-06-22T11:08:27;12.90;;;6.10;;
9138;SDS011;4604;48.616;9.548;2023-06-22T11:10:55;11.73;;;6.28;;
9138;SDS011;4604;48.616;9.548;2023-06-22T11:13:21;10.80;;;5.93;;
9138;SDS011;4604;48.616;9.548;2023-06-22T11:15:48;10.18;;;6.03;;
9138;SDS011;4604;48.616;9.548;2023-06-22T11:18:14;10.98;;;5.85;;
9138;SDS011;4604;48.616;9.548;2023-06-22T11:20:41;15.63;;;6.53;;
9138;SDS011;4604;48.616;9.548;2023-06-22T11:23:08;14.27;;;6.68;;
9138;SDS011;4604;48.616;9.548;2023-06-22T11:25:36;12.35;;;6.90;;
9138;SDS011;4604;48.616;9.548;2023-06-22T11:28:04;13.75;;;7.30;;
9138;SDS011;4604;48.616;9.548;2023-06-22T11:30:31;14.88;;;6.43;;
9138;SDS011;4604;48.616;9.548;2023-06-22T11:32:59;12.65;;;6.22;;
9138;SDS011;4604;48.616;9.548;2023-06-22T11:35:25;9.48;;;5.93;;
9138;SDS011;4604;48.616;9.548;2023-06-22T11:37:52;15.13;;;6.50;;
9138;SDS011;4604;48.616;9.548;2023-06-22T11:40:21;12.65;;;6.53;;
9138;SDS011;4604;48.616;9.548;2023-06-22T11:42:48;13.57;;;6.60;;
9138;SDS011;4604;48.616;9.548;2023-06-22T11:45:17;12.98;;;6.38;;
9138;SDS011;4604;48.616;9.548;2023-06-22T11:47:45;9.40;;;6.47;;
9138;SDS011;4604;48.616;9.548;2023-06-22T11:50:12;11.98;;;6.63;;
9138;SDS011;4604;48.616;9.548;2023-06-22T11:52:38;18.63;;;6.50;;
9138;SDS011;4604;48.616;9.548;2023-06-22T11:55:05;14.82;;;6.55;;
9138;SDS011;4604;48.616;9.548;2023-06-22T11:57:33;17.75;;;6.78;;
9138;SDS011;4604;48.616;9.548;2023-06-22T12:00:00;9.98;;;6.15;;
9138;SDS011;4604;48.616;9.548;2023-06-22T12:02:32;13.65;;;6.45;;
9138;SDS011;4604;48.616;9.548;2023-06-22T12:04:59;9.13;;;6.03;;
9138;SDS011;4604;48.616;9.548;2023-06-22T12:07:29;16.13;;;6.50;;
9138;SDS011;4604;48.616;9.548;2023-06-22T12:09:56;13.38;;;6.07;;
9138;SDS011;4604;48.616;9.548;2023-06-22T12:12:22;15.07;;;7.00;;
9138;SDS011;4604;48.616;9.548;2023-06-22T12:14:51;15.23;;;6.22;;
9138;SDS011;4604;48.616;9.548;2023-06-22T12:17:18;13.52;;;6.40;;
9138;SDS011;4604;48.616;9.548;2023-06-22T12:19:46;16.42;;;6.30;;
9138;SDS011;4604;48.616;9.548;2023-06-22T12:22:12;11.55;;;6.18;;
9138;SDS011;4604;48.616;9.548;2023-06-22T12:24:39;9.55;;;5.90;;
9138;SDS011;4604;48.616;9.548;2023-06-22T12:27:06;12.93;;;6.88;;
9138;SDS011;4604;48.616;9.548;2023-06-22T12:29:35;16.20;;;6.78;;
9138;SDS011;4604;48.616;9.548;2023-06-22T12:32:02;26.35;;;7.00;;
9138;SDS011;4604;48.616;9.548;2023-06-22T12:34:29;17.60;;;7.07;;
9138;SDS011;4604;48.616;9.548;2023-06-22T12:36:56;11.23;;;6.60;;
9138;SDS011;4604;48.616;9.548;2023-06-22T12:39:23;14.95;;;6.75;;
9138;SDS011;4604;48.616;9.548;2023-06-22T12:41:50;19.05;;;6.88;;
9138;SDS011;4604;48.616;9.548;2023-06-22T12:44:16;14.75;;;6.72;;
9138;SDS011;4604;48.616;9.548;2023-06-22T12:46:43;12.20;;;6.32;;
9138;SDS011;4604;48.616;9.548;2023-06-22T12:49:10;13.00;;;6.40;;
9138;SDS011;4604;48.616;9.548;2023-06-22T12:51:39;8.88;;;6.32;;
9138;SDS011;4604;48.616;9.548;2023-06-22T12:54:07;12.02;;;6.13;;
9138;SDS011;4604;48.616;9.548;2023-06-22T12:56:34;11.10;;;6.78;;
9138;SDS011;4604;48.616;9.548;2023-06-22T12:59:00;14.75;;;7.30;;
9138;SDS011;4604;48.616;9.548;2023-06-22T13:01:27;14.60;;;6.68;;
9138;SDS011;4604;48.616;9.548;2023-06-22T13:03:55;11.23;;;6.18;;
9138;SDS011;4604;48.616;9.548;2023-06-22T13:06:21;13.15;;;6.03;;
9138;SDS011;4604;48.616;9.548;2023-06-22T13:08:48;15.27;;;6.82;;
9138;SDS011;4604;48.616;9.548;2023-06-22T13:11:16;15.50;;;6.30;;
9138;SDS011;4604;48.616;9.548;2023-06-22T13:13:44;9.63;;;5.93;;
9138;SDS011;4604;48.616;9.548;2023-06-22T13:16:11;14.23;;;6.68;;
9138;SDS011;4604;48.616;9.548;2023-06-22T13:18:38;18.05;;;6.72;;
9138;SDS011;4604;48.616;9.548;2023-06-22T13:21:04;16.80;;;7.32;;
9138;SDS011;4604;48.616;9.548;2023-06-22T13:23:31;20.33;;;6.85;;
9138;SDS011;4604;48.616;9.548;2023-06-22T13:25:59;11.85;;;5.80;;
9138;SDS011;4604;48.616;9.548;2023-06-22T13:28:27;18.17;;;5.85;;
9138;SDS011;4604;48.616;9.548;2023-06-22T13:30:55;11.63;;;6.05;;
9138;SDS011;4604;48.616;9.548;2023-06-22T13:33:21;14.10;;;6.28;;
9138;SDS011;4604;48.616;9.548;2023-06-22T13:35:48;11.32;;;5.53;;
9138;SDS011;4604;48.616;9.548;2023-06-22T13:38:15;18.50;;;6.70;;
9138;SDS011;4604;48.616;9.548;2023-06-22T13:40:42;11.57;;;5.60;;
9138;SDS011;4604;48.616;9.548;2023-06-22T13:43:09;12.30;;;6.22;;
9138;SDS011;4604;48.616;9.548;2023-06-22T13:45:37;12.35;;;6.07;;
9138;SDS011;4604;48.616;9.548;2023-06-22T13:48:04;14.15;;;6.20;;
9138;SDS011;4604;48.616;9.548;2023-06-22T13:50:31;12.48;;;5.50;;
9138;SDS011;4604;48.616;9.548;2023-06-22T13:52:57;11.23;;;5.85;;
9138;SDS011;4604;48.616;9.548;2023-06-22T13:55:24;15.40;;;6.40;;
9138;SDS011;4604;48.616;9.548;2023-06-22T13:57:51;21.85;;;11.95;;
9138;SDS011;4604;48.616;9.548;2023-06-22T14:00:18;23.80;;;7.15;;
9138;SDS011;4604;48.616;9.548;2023-06-22T14:02:46;26.95;;;8.23;;
9138;SDS011;4604;48.616;9.548;2023-06-22T14:05:13;13.85;;;7.72;;
9138;SDS011;4604;48.616;9.548;2023-06-22T14:07:40;17.70;;;8.10;;
9138;SDS011;4604;48.616;9.548;2023-06-22T14:10:06;12.93;;;6.70;;
9138;SDS011;4604;48.616;9.548;2023-06-22T14:12:33;14.48;;;6.15;;
9138;SDS011;4604;48.616;9.548;2023-06-22T14:15:00;10.40;;;5.95;;
9138;SDS011;4604;48.616;9.548;2023-06-22T14:17:27;20.77;;;5.72;;
9138;SDS011;4604;48.616;9.548;2023-06-22T14:19:55;12.05;;;5.82;;
9138;SDS011;4604;48.616;9.548;2023-06-22T14:22:22;10.20;;;5.50;;
9138;SDS011;4604;48.616;9.548;2023-06-22T14:24:49;11.15;;;6.07;;
9138;SDS011;4604;48.616;9.548;2023-06-22T14:27:15;15.80;;;5.85;;
9138;SDS011;4604;48.616;9.548;2023-06-22T14:29:42;11.00;;;5.40;;
9138;SDS011;4604;48.616;9.548;2023-06-22T14:32:09;13.20;;;5.45;;
9138;SDS011;4604;48.616;9.548;2023-06-22T14:34:36;15.82;;;5.38;;
9138;SDS011;4604;48.616;9.548;2023-06-22T14:37:06;11.02;;;5.53;;
9138;SDS011;4604;48.616;9.548;2023-06-22T14:39:34;9.20;;;5.82;;
9138;SDS011;4604;48.616;9.548;2023-06-22T14:42:01;12.65;;;5.65;;
9138;SDS011;4604;48.616;9.548;2023-06-22T14:44:28;12.18;;;5.80;;
9138;SDS011;4604;48.616;9.548;2023-06-22T14:46:55;13.48;;;5.18;;
9138;SDS011;4604;48.616;9.548;2023-06-22T14:49:22;11.52;;;5.35;;
9138;SDS011;4604;48.616;9.548;2023-06-22T14:51:48;18.10;;;5.30;;
9138;SDS011;4604;48.616;9.548;2023-06-22T14:54:17;14.80;;;6.13;;
9138;SDS011;4604;48.616;9.548;2023-06-22T14:56:44;20.30;;;4.95;;
9138;SDS011;4604;48.616;9.548;2023-06-22T14:59:10;14.75;;;5.00;;
9138;SDS011;4604;48.616;9.548;2023-06-22T15:01:37;14.32;;;5.05;;
9138;SDS011;4604;48.616;9.548;2023-06-22T15:04:03;10.57;;;4.70;;
9138;SDS011;4604;48.616;9.548;2023-06-22T15:06:30;12.05;;;5.60;;
9138;SDS011;4604;48.616;9.548;2023-06-22T15:08:57;15.65;;;5.22;;